aviador You're here:

KAKR Decoded Metar

AKRON in OH, USA
Report Time2018-05-21 15:54:00
UTC Time2018-05-21 16:51:41
Flight Rules vfr VFR
Wind050° at 05 kt
W.Decomp.*RWY 07: 4.9 kt HW 1.1 kt LCW
RWY 01: 3.4 kt HW 3.7 kt RCW
W.Rank050° ranks 26
Current wind is below 050° avg. (6.0)
Visibility9999 m
Phenomena:N/A
Clouds:N/A
Expected CloudBase > 3,600 ft AGL from Temp-Dew spread
CeilingNone
Temp23°C (ISA +10)
Dew Point14°C (57% RH)
AAT22.5°C
QNH1023 hPa
Density Alt2,277 ft
Elevation1,191 ft
Report Wrong Elevation
Raw Report
KAKR 211554Z AUTO 05005KT 10SM CLR 23/14 A3020 RMK AO2 SLP222
T02280139=

Extra information for KAKR:More info

Metar Taf Metar & Taf Last 4 Metars F.Rules Stats Wind Profile Meteogram Temp Stats Airport Information Weather charts Add Link Nearby VenuesMetar ALERT Operation Metar Decoded Social comments

AIRNAV info for KAKR